Hlavní strana
METAR-TAF:

METAR-TAF

Letiště :

Clemson, Jižní Karolína, Spojené státy americké

zeměpisná šířka: 34-40-20N, zeměpisná délka: 082-52-53W, výška: 272 m

Aktuální stav počasí

Zpráva byla vytvořena před 58 minutami, v 10:54 UTC
Východoseverovýchodní vítr 7 kt
Teplota 4°C
Vlhkost vzduchu 93%
Tlak 1018 hPa
Viditelnost: 8.0 km
Zataženo ve výšce 500 ft
slabý déšť, kouřmo

METAR: KCEU 241054Z AUTO 07007KT 5SM -RA BR OVC005 04/03 A3006 RMK AO2 CIG 003V009 SLP181 P0003 T00390033

Čas: 06:52 (11:52 UTC)


TAF: chybějící

Stav a předpovědi počasí z více než 4 000 letišť (zprávy METAR a TAF).

Červené a žluté tečky na mapě představují dostupné meteorologické stanice.

Když kurzor umístíte na tečku, zobrazí se název stanice.

Pak kliknutím zobrazíte stav a předpověď počasí.

Chcete-li změnit mapu, kliknutím na zelené tlačítko se znaménkem +mapu přiblížíte, kliknutím na zelené tlačítko se znaménkem – mapu oddálíte a kliknutím na zelené šipky přejdete na sousední mapy.


METAR-TAF: